Flight Track Log - Related Links

Times and Time Zones

All times are in EDT time to prevent confusion due to time zone crossing. See the EJA396 flight status page for this flight to view local times or setup timezone preferences in your user account.

Time Position Orientation Groundspeed Altitude Reporting Facility
EDT Latitude Longitude Course Direction KTS MPH feet Rate Location/Type
Fri 01:08:29 PM 33.8667 -84.3500 320° Northwest 209 241 4,000  Level Atlanta TRACON
Fri 01:09:29 PM 33.9167 -84.4000 320° Northwest 224 258 6,800 1,695 Climbing Atlanta TRACON
Fri 01:10:40 PM 33.9836 -84.4347 337° Northwest 245 282 7,700 2,061 Climbing Atlanta Center
Fri 01:11:40 PM 34.0544 -84.4875 328° Northwest 270 311 11,300 3,600 Climbing Atlanta Center
Fri 01:13:40 PM 34.2269 -84.6067 330° Northwest 348 400 18,500 3,333 Climbing Atlanta Center
Fri 01:14:40 PM 34.3122 -84.6675 329° Northwest 353 406 21,300 2,850 Climbing Atlanta Center
Fri 01:15:40 PM 34.4017 -84.7286 331° Northwest 358 412 24,200 2,750 Climbing Atlanta Center
Fri 01:16:40 PM 34.5081 -84.7522 350° North 358 412 26,800 2,700 Climbing Atlanta Center
Fri 01:17:40 PM 34.6122 -84.7758 349° North 374 430 29,600 2,400 Climbing Atlanta Center
Fri 01:18:40 PM 34.7228 -84.8019 349° North 385 443 31,600 2,000 Climbing Atlanta Center
Fri 01:19:40 PM 34.8353 -84.8233 351° North 397 457 33,600 2,000 Climbing Atlanta Center
Fri 01:20:40 PM 34.9458 -84.8497 349° North 402 463 35,600 1,900 Climbing Atlanta Center
Fri 01:21:40 PM 35.0542 -84.8761 349° North 402 463 37,400 1,200 Climbing Atlanta Center
Fri 01:22:40 PM 35.1667 -84.9000 350° North 402 463 38,000 300 Climbing Atlanta Center
Fri 01:23:40 PM 35.2811 -84.9242 350° North 407 468 38,000  Level Atlanta Center
Fri 01:24:40 PM 35.3958 -84.9508 349° North 412 474 38,000  Level Atlanta Center
Fri 01:25:40 PM 35.5103 -84.9750 350° North 412 474 38,000  Level Atlanta Center
Fri 01:26:40 PM 35.6206 -85.0019 349° North 412 474 38,000  Level Atlanta Center
Fri 01:27:40 PM 35.7372 -85.0314 348° North 412 474 38,000  Level Atlanta Center
Fri 01:28:40 PM 35.8539 -85.0611 348° North 412 474 38,000  Level Atlanta Center
Fri 01:29:17 PM 35.9336 -85.0700 355° North 419 482 38,000  Level Indianapolis Center
Fri 01:30:19 PM 36.0461 -85.0950 350° North 420 483 38,000  Level Indianapolis Center
Fri 01:31:21 PM 36.1619 -85.1172 351° North 420 483 38,000  Level Indianapolis Center
Fri 01:32:22 PM 36.2783 -85.1400 351° North 420 483 38,000  Level Indianapolis Center
Fri 01:33:24 PM 36.3939 -85.1642 350° North 420 483 38,000  Level Indianapolis Center
Fri 01:34:26 PM 36.5339 -85.1931 351° North 420 483 38,000  Level Indianapolis Center
Fri 01:35:28 PM 36.6497 -85.2169 351° North 421 484 38,000  Level Indianapolis Center
Fri 01:36:30 PM 36.7658 -85.2400 351° North 421 484 38,000  Level Indianapolis Center
Fri 01:37:32 PM 36.8817 -85.2650 350° North 421 484 38,000  Level Indianapolis Center
Fri 01:38:34 PM 36.9981 -85.2881 351° North 421 484 38,000  Level Indianapolis Center
Fri 01:39:36 PM 37.1225 -85.3136 351° North 421 484 38,000  Level Indianapolis Center
Fri 01:40:38 PM 37.2367 -85.3386 350° North 420 483 38,000  Level Indianapolis Center
Fri 01:41:40 PM 37.3533 -85.3625 351° North 420 483 38,000  Level Indianapolis Center
Fri 01:42:42 PM 37.4903 -85.3917 350° North 421 484 38,000  Level Indianapolis Center
Fri 01:43:44 PM 37.6072 -85.4156 351° North 421 484 38,000  Level Indianapolis Center
Fri 01:44:45 PM 37.7244 -85.4400 351° North 422 486 38,000  Level Indianapolis Center
Fri 01:45:47 PM 37.8489 -85.4661 351° North 422 486 38,000  Level Indianapolis Center
Fri 01:46:49 PM 37.9667 -85.4925 350° North 424 488 38,000  Level Indianapolis Center
Fri 01:47:51 PM 38.0844 -85.5167 351° North 424 488 38,000  Level Indianapolis Center
Fri 01:48:53 PM 38.2025 -85.5428 350° North 426 490 38,000 -242 Level Indianapolis Center
Fri 01:49:55 PM 38.3203 -85.5681 350° North 426 490 37,500 -1,355 Descending Indianapolis Center
Fri 01:50:57 PM 38.4436 -85.5947 350° North 438 504 35,200 -1,210 Descending Indianapolis Center
Fri 01:51:59 PM 38.5997 -85.6292 350° North 466 536 35,000 -97 Descending Indianapolis Center
Fri 01:53:01 PM 38.7281 -85.6561 351° North 471 542 35,000 -871 Level Indianapolis Center
Fri 01:54:03 PM 38.8606 -85.6850 350° North 476 548 33,200 -1,887 Descending Indianapolis Center
Fri 01:55:05 PM 38.9967 -85.7150 350° North 491 565 31,100 -1,548 Descending Indianapolis Center
Fri 01:56:07 PM 39.1289 -85.7431 351° North 490 564 30,000 -537 Descending Indianapolis Center
Fri 01:57:08 PM 39.2572 -85.7717 350° North 477 549 30,000  Level Indianapolis Center
Fri 01:58:10 PM 39.4167 -85.8069 350° North 481 554 30,000 -48 Level Indianapolis Center
Fri 01:59:12 PM 39.5511 -85.8364 350° North 489 563 29,900 -960 Descending Indianapolis Center
Fri 02:00:15 PM 39.6867 -85.8661 350° North 492 566 28,000 -1,872 Descending Indianapolis Center
Fri 02:01:17 PM 39.8156 -85.8953 350° North 485 558 26,000 -1,742 Descending Indianapolis Center
Fri 02:02:19 PM 39.9372 -85.9236 350° North 457 526 24,400 -968 Descending Indianapolis Center
Fri 02:03:21 PM 40.0825 -85.9572 350° North 449 517 24,000 -194 Descending Indianapolis Center
Fri 02:04:23 PM 40.1908 -86.0089 340° North 421 484 24,000 -484 Level Indianapolis Center
Fri 02:05:25 PM 40.3019 -86.0617 340° North 426 490 23,000 -1,355 Descending Indianapolis Center
Fri 02:06:27 PM 40.4114 -86.1153 340° North 424 488 21,200 -1,742 Descending Indianapolis Center
Fri 02:07:29 PM 40.5186 -86.1683 339° North 419 482 19,400 -1,984 Descending Indianapolis Center
Fri 02:08:31 PM 40.6411 -86.2300 339° North 399 459 17,100 -1,884 Descending Indianapolis Center
Fri 02:09:30 PM 40.7314 -86.2736 340° North 383 441 15,600 -1,488 Descending Chicago Center
Fri 02:10:32 PM 40.8331 -86.3244 339° North 387 445 14,100 -1,452 Descending Chicago Center
Fri 02:11:34 PM 40.9297 -86.3733 339° North 374 430 12,600 -1,500 Descending Chicago Center
Fri 02:12:36 PM 41.0222 -86.4200 339° North 358 412 11,000 -919 Descending Chicago Center
Fri 02:13:38 PM 41.0906 -86.5344 308° West 337 388 10,700 -484 Descending Chicago Center
Fri 02:14:40 PM 41.1681 -86.5922 331° Northwest 326 375 10,000 -339 Descending Chicago Center
Fri 02:15:42 PM 41.2547 -86.6397 338° Northwest 334 384 10,000 -48 Level Chicago Center
Fri 02:16:44 PM 41.3428 -86.6739 344° North 332 382 9,900 -484 Descending Chicago Center
Fri 02:17:46 PM 41.4147 -86.7378 326° Northwest 287 330 9,000 -864 Descending Chicago Center
Fri 02:18:49 PM 41.4689 -86.8178 312° West 276 318 8,100 -480 Descending Chicago Center
Fri 02:19:51 PM 41.4825 -86.9039 282° West 234 269 8,000 -48 Descending Chicago Center
Fri 02:20:53 PM 41.4781 -86.9914 266° West 237 273 8,000 -145 Level Chicago Center
Fri 02:21:55 PM 41.5122 -87.0811 297° West 271 312 7,700 -774 Descending Chicago Center
Fri 02:22:57 PM 41.5442 -87.1628 298° West 258 297 6,400 -823 Descending Chicago Center
Fri 02:23:59 PM 41.6011 -87.2367 316° Northwest 264 304 6,000 -194 Descending Chicago Center
Fri 02:25:01 PM 41.6536 -87.3022 317° Northwest 261 300 6,000 -726 Level Chicago Center
Fri 02:26:03 PM 41.7108 -87.3739 317° Northwest 261 300 4,500 -968 Descending Chicago Center
Fri 02:27:05 PM 41.7631 -87.4397 317° Northwest 261 300 4,000 -339 Descending Chicago Center
Fri 02:28:07 PM 41.8114 -87.5006 317° Northwest 242 278 3,800 -726 Descending Chicago Center
Fri 02:29:09 PM 41.8425 -87.5678 302° West 211 243 2,500 -816 Descending Chicago Center
Fri 02:30:12 PM 41.8264 -87.6272 250° West 170 196 2,100 -240 Descending Chicago Center
Fri 02:31:14 PM 41.8181 -87.6956 261° West 169 194 2,000 -581 Descending Chicago Center
Fri 02:32:16 PM 41.8008 -87.7369 241° Southwest 125 144 900 -629 Descending Chicago Center
Fri 02:33:18 PM 41.7822 -87.7597 222° Southwest 109 125 700 -194 Descending Chicago Center

Login

Don't have an account? Register now (free) for customized features, flight alerts, and more!